Time;durP1;ratioP1;P1;durP2;ratioP2;P2;SDS_P1;SDS_P2;PMS_P1;PMS_P2;Temp;Humidity;BMP_temperature;BMP_pressure;BME280_temperature;BME280_humidity;BME280_pressure;Samples;Min_cycle;Max_cycle;Signal;HPM_P1;HPM_P2
2023/09/28 04:01:37;;;;;;;2.83;2.17;;;17.50;72.80;;;;;;6271769;22;20455;-74
2023/09/28 04:04:05;;;;;;;2.37;1.77;;;17.50;73.60;;;;;;6309033;22;20542;-74
2023/09/28 04:06:31;;;;;;;2.67;2.17;;;17.50;74.00;;;;;;6308579;22;20775;-74
2023/09/28 04:08:58;;;;;;;2.97;2.20;;;17.50;74.30;;;;;;6308931;22;20396;-74
2023/09/28 04:11:25;;;;;;;2.63;2.30;;;17.60;73.90;;;;;;6295508;22;20420;-74
2023/09/28 04:13:51;;;;;;;3.10;2.00;;;17.50;74.10;;;;;;6277949;22;20400;-74
2023/09/28 04:16:19;;;;;;;2.30;1.90;;;17.40;74.60;;;;;;6278086;22;20440;-74
2023/09/28 04:18:47;;;;;;;2.70;2.00;;;17.50;74.20;;;;;;6278616;22;20406;-74
2023/09/28 04:21:13;;;;;;;2.93;2.20;;;17.50;74.10;;;;;;6278423;22;20421;-74
2023/09/28 04:23:40;;;;;;;3.00;2.27;;;17.40;74.30;;;;;;6277586;22;20412;-74
2023/09/28 04:26:07;;;;;;;2.97;2.20;;;17.40;73.60;;;;;;6277438;22;20916;-74
2023/09/28 04:28:34;;;;;;;2.77;2.20;;;17.50;72.90;;;;;;6277770;22;20397;-74
2023/09/28 04:31:00;;;;;;;4.13;2.07;;;17.50;73.00;;;;;;6277697;22;20422;-74
2023/09/28 04:33:27;;;;;;;2.63;2.20;;;17.60;72.80;;;;;;6277780;22;20409;-74
2023/09/28 04:35:55;;;;;;;2.60;2.00;;;17.60;72.60;;;;;;6277377;22;20409;-74
2023/09/28 04:38:22;;;;;;;2.60;1.77;;;17.70;72.10;;;;;;6277659;22;20443;-74
2023/09/28 04:40:49;;;;;;;2.50;1.70;;;17.50;72.60;;;;;;6277641;22;20752;-75
2023/09/28 04:43:17;;;;;;;2.50;2.03;;;17.50;72.70;;;;;;6277679;22;20745;-74
2023/09/28 04:45:43;;;;;;;3.00;2.10;;;17.60;72.50;;;;;;6277261;22;20912;-75
2023/09/28 04:48:10;;;;;;;4.60;2.10;;;17.70;72.50;;;;;;6277619;22;20398;-74
2023/09/28 04:50:37;;;;;;;2.73;1.90;;;17.50;72.90;;;;;;6277503;22;20397;-74
2023/09/28 04:53:05;;;;;;;2.67;2.10;;;17.50;73.10;;;;;;6277570;22;20405;-75
2023/09/28 04:55:31;;;;;;;2.50;2.07;;;17.70;72.70;;;;;;6277202;22;20892;-74
2023/09/28 04:57:58;;;;;;;2.80;2.10;;;17.70;72.00;;;;;;6277320;22;20783;-74
2023/09/28 05:00:26;;;;;;;2.50;2.27;;;17.80;72.00;;;;;;6277269;22;20397;-76
2023/09/28 05:02:53;;;;;;;2.30;1.90;;;17.80;72.00;;;;;;6277493;22;20386;-74
2023/09/28 05:05:20;;;;;;;2.87;2.30;;;17.60;72.80;;;;;;6277379;22;20397;-74
2023/09/28 05:07:46;;;;;;;2.97;2.53;;;17.60;73.40;;;;;;6277425;22;20398;-74
2023/09/28 05:10:15;;;;;;;2.80;2.17;;;17.50;73.90;;;;;;6277254;22;20404;-75
2023/09/28 05:12:41;;;;;;;2.57;2.23;;;17.40;74.20;;;;;;6277569;22;20420;-74
2023/09/28 05:15:09;;;;;;;3.30;2.80;;;17.40;74.00;;;;;;6277281;22;20424;-74
2023/09/28 05:17:36;;;;;;;3.47;2.20;;;17.50;74.10;;;;;;6277147;22;20432;-74
2023/09/28 05:20:03;;;;;;;4.30;1.97;;;17.60;74.00;;;;;;6277230;22;20401;-73
2023/09/28 05:22:30;;;;;;;3.03;2.23;;;17.50;74.00;;;;;;6276775;22;20433;-74
2023/09/28 05:24:57;;;;;;;3.73;2.33;;;17.50;73.90;;;;;;6277207;22;20408;-74
2023/09/28 05:27:25;;;;;;;2.60;2.20;;;17.40;73.00;;;;;;6277173;22;20400;-74
2023/09/28 05:29:52;;;;;;;3.10;2.30;;;17.40;73.00;;;;;;6277100;22;20402;-74
2023/09/28 05:32:19;;;;;;;3.10;2.20;;;17.60;72.50;;;;;;6277029;22;20440;-74
2023/09/28 05:34:45;;;;;;;3.20;2.60;;;17.80;71.40;;;;;;6277024;22;20408;-74
2023/09/28 05:37:13;;;;;;;2.53;2.13;;;18.00;71.10;;;;;;6276658;22;20438;-74
2023/09/28 05:39:39;;;;;;;2.63;2.03;;;18.20;70.70;;;;;;6276743;22;20412;-74
2023/09/28 05:42:07;;;;;;;3.00;1.80;;;18.10;70.70;;;;;;6276971;22;20440;-72
2023/09/28 05:44:35;;;;;;;3.30;1.97;;;18.10;71.10;;;;;;6277147;22;20437;-73
2023/09/28 05:47:02;;;;;;;3.93;2.43;;;18.00;72.00;;;;;;6276963;22;20398;-73
2023/09/28 05:49:29;;;;;;;3.67;2.60;;;17.90;73.00;;;;;;6276963;22;20398;-75
2023/09/28 05:51:56;;;;;;;3.07;2.40;;;17.80;73.50;;;;;;6276856;22;20432;-75
2023/09/28 05:54:23;;;;;;;2.53;2.10;;;17.70;73.80;;;;;;6276949;22;20401;-75
2023/09/28 05:56:49;;;;;;;2.73;2.40;;;17.50;74.20;;;;;;6276905;22;20785;-75
2023/09/28 05:59:16;;;;;;;2.73;2.00;;;17.60;73.60;;;;;;6276970;22;20398;-75
2023/09/28 06:01:44;;;;;;;2.70;1.93;;;17.70;71.80;;;;;;6276502;22;20437;-75
2023/09/28 06:04:11;;;;;;;2.97;2.40;;;17.70;72.10;;;;;;6276516;22;20406;-75
2023/09/28 06:06:38;;;;;;;2.70;2.40;;;17.70;71.50;;;;;;6276871;22;20406;-75
2023/09/28 06:09:05;;;;;;;2.63;2.30;;;17.70;71.50;;;;;;6276866;22;20467;-75
2023/09/28 06:11:32;;;;;;;2.67;2.10;;;17.70;72.40;;;;;;6276764;22;20421;-75
2023/09/28 06:13:59;;;;;;;2.87;2.23;;;17.80;71.80;;;;;;6276622;22;20401;-75
2023/09/28 06:16:26;;;;;;;2.53;2.30;;;17.80;72.20;;;;;;6276793;22;20401;-74
2023/09/28 06:18:54;;;;;;;4.97;2.53;;;17.80;73.30;;;;;;6276644;22;20832;-75
2023/09/28 06:21:21;;;;;;;2.90;2.23;;;17.80;73.70;;;;;;6276672;22;20755;-74
2023/09/28 06:23:48;;;;;;;3.43;2.50;;;17.80;73.30;;;;;;6276715;22;20459;-74
2023/09/28 06:26:14;;;;;;;2.73;2.13;;;17.90;73.80;;;;;;6276678;22;20410;-74
2023/09/28 06:28:41;;;;;;;3.67;2.47;;;18.00;73.50;;;;;;6276722;22;20393;-74
2023/09/28 06:31:08;;;;;;;2.90;1.77;;;18.20;72.60;;;;;;6276545;22;20500;-75
2023/09/28 06:33:35;;;;;;;2.67;1.97;;;18.90;70.80;;;;;;6276700;22;20401;-75
2023/09/28 06:36:04;;;;;;;2.67;2.10;;;19.70;69.20;;;;;;6276630;22;20408;-74
2023/09/28 06:38:30;;;;;;;3.10;2.20;;;20.50;66.80;;;;;;6276160;22;20975;-74
2023/09/28 06:40:57;;;;;;;2.60;2.40;;;21.50;64.20;;;;;;6276871;22;20513;-75
2023/09/28 06:43:25;;;;;;;3.23;2.50;;;22.50;61.50;;;;;;6276294;22;20935;-74
2023/09/28 06:45:52;;;;;;;2.70;1.87;;;23.50;58.90;;;;;;6276600;22;20408;-75
2023/09/28 06:48:18;;;;;;;2.23;1.90;;;24.80;56.20;;;;;;6279606;22;20483;-75
2023/09/28 06:50:45;;;;;;;2.77;2.37;;;26.30;52.10;;;;;;6279907;22;20425;-75
2023/09/28 06:53:13;;;;;;;3.33;2.20;;;27.30;50.40;;;;;;6280013;22;20397;-75
2023/09/28 06:55:40;;;;;;;2.00;1.77;;;28.40;48.00;;;;;;6280255;22;20405;-74
2023/09/28 06:58:09;;;;;;;2.90;2.20;;;28.90;46.10;;;;;;6279900;22;20444;-74
2023/09/28 07:00:36;;;;;;;2.37;2.07;;;29.70;45.20;;;;;;6279587;22;20500;-75
2023/09/28 07:03:05;;;;;;;2.83;2.07;;;30.70;44.10;;;;;;6280007;22;20392;-73
2023/09/28 07:05:33;;;;;;;3.07;1.90;;;31.70;42.80;;;;;;6279862;22;20432;-74
2023/09/28 07:08:01;;;;;;;3.33;2.60;;;32.40;41.70;;;;;;6279858;22;20419;-75
2023/09/28 07:10:29;;;;;;;2.43;1.93;;;33.10;40.20;;;;;;6279782;22;20401;-75
2023/09/28 07:12:56;;;;;;;3.40;1.87;;;33.10;39.30;;;;;;6279866;22;20412;-74
2023/09/28 07:15:22;;;;;;;2.60;2.30;;;33.40;39.50;;;;;;6279853;22;20400;-75
2023/09/28 07:17:49;;;;;;;3.30;2.27;;;33.30;39.10;;;;;;6279739;22;20432;-74
2023/09/28 07:20:16;;;;;;;1.97;1.70;;;32.30;40.80;;;;;;6279824;22;20500;-74
2023/09/28 07:22:43;;;;;;;2.63;2.00;;;31.30;41.50;;;;;;6279733;22;20421;-74
2023/09/28 07:25:10;;;;;;;2.30;1.77;;;30.50;43.30;;;;;;6279867;22;20397;-74
2023/09/28 07:27:38;;;;;;;2.70;1.80;;;29.40;45.00;;;;;;6279797;22;20458;-74
2023/09/28 07:30:06;;;;;;;2.37;1.87;;;28.40;47.10;;;;;;6279793;22;20405;-74
2023/09/28 07:32:33;;;;;;;2.47;1.87;;;27.60;48.10;;;;;;6279686;22;20447;-75
2023/09/28 07:35:00;;;;;;;2.87;1.93;;;26.80;50.10;;;;;;6279437;22;20884;-74
2023/09/28 07:37:27;;;;;;;2.97;1.87;;;26.40;50.70;;;;;;6279692;22;20456;-74
2023/09/28 07:39:54;;;;;;;2.30;1.70;;;25.80;52.00;;;;;;6279780;22;20397;-74
2023/09/28 07:42:21;;;;;;;2.57;1.83;;;25.30;54.40;;;;;;6279687;22;20449;-74
2023/09/28 07:44:49;;;;;;;2.03;1.50;;;24.90;55.90;;;;;;6279928;22;20451;-73
2023/09/28 07:47:16;;;;;;;2.53;2.00;;;24.30;55.50;;;;;;6279708;22;20795;-74
2023/09/28 07:49:43;;;;;;;3.20;2.20;;;23.80;56.20;;;;;;6279672;22;20408;-74
2023/09/28 07:52:09;;;;;;;3.17;1.80;;;23.60;56.90;;;;;;6279567;22;20420;-74
2023/09/28 07:54:37;;;;;;;2.53;1.90;;;23.40;58.30;;;;;;6279872;22;20408;-74
2023/09/28 07:57:05;;;;;;;2.60;2.10;;;23.20;59.10;;;;;;6279731;22;20459;-74
2023/09/28 07:59:32;;;;;;;2.93;2.17;;;23.10;60.50;;;;;;6277945;22;20460;-74
2023/09/28 08:02:00;;;;;;;2.70;2.07;;;23.00;60.50;;;;;;6277833;22;20437;-74
2023/09/28 08:04:26;;;;;;;2.53;1.77;;;22.80;60.60;;;;;;6278040;22;20402;-74
2023/09/28 08:06:53;;;;;;;3.40;1.77;;;22.90;60.70;;;;;;6277598;22;20745;-74
2023/09/28 08:09:20;;;;;;;2.73;2.27;;;22.60;60.40;;;;;;6277908;22;20394;-74
2023/09/28 08:11:48;;;;;;;2.63;1.80;;;22.60;60.80;;;;;;6277853;22;20755;-74
2023/09/28 08:14:16;;;;;;;2.37;1.60;;;22.90;60.60;;;;;;6277912;22;20440;-75
2023/09/28 08:16:43;;;;;;;2.50;2.07;;;23.30;59.80;;;;;;6277565;22;20900;-75
2023/09/28 08:19:11;;;;;;;3.27;2.10;;;23.70;58.40;;;;;;6277802;22;20775;-74
2023/09/28 08:21:38;;;;;;;2.97;1.90;;;23.60;57.80;;;;;;6277748;22;20478;-74
2023/09/28 08:24:06;;;;;;;2.97;1.77;;;23.10;59.10;;;;;;6277773;22;20495;-74
2023/09/28 08:26:33;;;;;;;2.30;1.90;;;22.90;60.40;;;;;;6277733;22;20410;-74
2023/09/28 08:28:59;;;;;;;3.27;2.53;;;22.70;61.50;;;;;;6277327;22;20783;-74
2023/09/28 08:31:27;;;;;;;2.80;2.20;;;22.80;62.10;;;;;;6277595;22;20735;-74
2023/09/28 08:33:53;;;;;;;2.67;1.77;;;22.80;61.80;;;;;;6277644;22;20476;-74
2023/09/28 08:36:22;;;;;;;3.27;2.30;;;22.60;62.30;;;;;;6277662;22;20467;-74
2023/09/28 08:38:49;;;;;;;3.37;2.40;;;22.60;62.10;;;;;;6277617;22;20812;-74
2023/09/28 08:41:17;;;;;;;4.10;1.93;;;22.60;62.30;;;;;;6277572;22;20425;-74
2023/09/28 08:43:47;;;;;;;2.80;2.10;;;22.70;62.80;;;;;;6277634;22;20401;-74
2023/09/28 08:46:15;;;;;;;2.70;2.10;;;22.70;62.80;;;;;;6278975;22;20420;-74
2023/09/28 08:48:46;;;;;;;3.90;2.20;;;22.90;63.10;;;;;;6277584;22;20400;-74
2023/09/28 08:51:13;;;;;;;2.97;2.23;;;23.20;62.60;;;;;;6277049;22;20430;-74
2023/09/28 08:53:43;;;;;;;3.10;2.30;;;23.00;63.60;;;;;;6277485;22;20397;-75
2023/09/28 08:56:10;;;;;;;2.30;1.90;;;23.10;62.80;;;;;;6277516;22;20392;-75
2023/09/28 08:58:37;;;;;;;3.70;2.10;;;22.90;63.30;;;;;;6276994;22;20726;-74
2023/09/28 09:01:07;;;;;;;2.20;1.50;;;22.80;62.20;;;;;;6277130;22;20452;-74
2023/09/28 09:03:34;;;;;;;2.80;1.90;;;22.90;63.70;;;;;;6277434;22;20784;-74
2023/09/28 09:06:05;;;;;;;2.90;2.20;;;23.00;60.80;;;;;;6277415;22;20403;-75
2023/09/28 09:08:34;;;;;;;2.40;1.70;;;23.00;62.50;;;;;;6277418;22;20417;-75
2023/09/28 09:11:02;;;;;;;2.63;2.00;;;22.80;63.60;;;;;;6276706;22;20931;-74
2023/09/28 09:13:29;;;;;;;2.50;1.90;;;22.70;63.50;;;;;;6277327;22;20401;-75
2023/09/28 09:15:56;;;;;;;2.20;1.70;;;22.90;64.30;;;;;;6277325;22;20397;-75
2023/09/28 09:18:25;;;;;;;2.00;1.57;;;22.60;62.90;;;;;;6277456;22;20465;-75
2023/09/28 09:21:00;;;;;;;2.50;1.80;;;22.50;64.10;;;;;;6276813;22;20417;-74
2023/09/28 09:23:28;;;;;;;2.87;2.20;;;22.70;63.80;;;;;;6277276;22;20476;-75
2023/09/28 09:25:55;;;;;;;2.57;1.70;;;22.70;63.00;;;;;;6277240;22;20497;-76
2023/09/28 09:28:32;;;;;;;3.10;1.90;;;22.70;63.10;;;;;;6277134;22;20507;-75
2023/09/28 09:31:00;;;;;;;2.40;1.67;;;22.70;63.00;;;;;;6277099;22;20448;-74
2023/09/28 09:33:28;;;;;;;3.07;1.63;;;22.80;63.10;;;;;;6277145;22;20397;-75
2023/09/28 09:35:55;;;;;;;2.30;2.10;;;23.00;62.70;;;;;;6277120;22;20405;-75
2023/09/28 09:38:28;;;;;;;2.87;2.13;;;23.00;61.80;;;;;;6277044;22;20433;-75
2023/09/28 09:40:58;;;;;;;2.57;2.00;;;23.10;63.90;;;;;;6277044;22;20428;-74
2023/09/28 09:43:25;;;;;;;3.20;1.90;;;23.10;63.20;;;;;;6277045;22;20401;-74
2023/09/28 09:45:53;;;;;;;2.60;1.60;;;23.20;62.30;;;;;;6277069;22;20405;-75
2023/09/28 09:48:21;;;;;;;2.30;1.70;;;23.40;63.20;;;;;;6277030;22;20402;-75
2023/09/28 09:50:49;;;;;;;2.10;1.40;;;23.50;62.80;;;;;;6276969;22;20418;-75
2023/09/28 09:53:17;;;;;;;2.80;1.50;;;23.60;62.30;;;;;;6277049;22;20425;-75
2023/09/28 09:55:44;;;;;;;2.33;1.83;;;23.70;63.00;;;;;;6276934;22;20401;-75
2023/09/28 09:58:14;;;;;;;2.87;1.93;;;23.80;63.50;;;;;;6276884;22;20433;-75
2023/09/28 10:00:42;;;;;;;2.50;1.80;;;23.80;62.60;;;;;;6276816;22;21854;-75
2023/09/28 10:03:11;;;;;;;2.10;1.80;;;23.90;62.00;;;;;;6277217;22;20382;-75
2023/09/28 10:05:39;;;;;;;3.37;1.80;;;24.10;61.00;;;;;;6276830;22;20401;-74
2023/09/28 10:08:08;;;;;;;2.17;1.70;;;24.10;60.40;;;;;;6276836;22;20419;-74
2023/09/28 10:10:36;;;;;;;2.00;1.40;;;24.30;60.50;;;;;;6276625;22;20493;-73
2023/09/28 10:13:03;;;;;;;2.07;1.40;;;24.40;59.10;;;;;;6276793;22;20401;-74
2023/09/28 10:15:30;;;;;;;2.50;1.60;;;24.60;56.20;;;;;;6277400;22;20405;-74
2023/09/28 10:17:58;;;;;;;4.30;1.67;;;24.60;59.40;;;;;;6276631;22;20420;-74
2023/09/28 10:20:26;;;;;;;2.33;1.73;;;24.60;58.40;;;;;;6276621;22;20435;-75
2023/09/28 10:22:55;;;;;;;2.10;1.70;;;24.70;60.30;;;;;;6276472;22;20397;-75
2023/09/28 10:25:24;;;;;;;2.53;1.50;;;24.70;57.80;;;;;;6276703;22;20404;-75
2023/09/28 10:27:58;;;;;;;2.83;1.70;;;24.80;59.50;;;;;;6276997;22;20492;-74
2023/09/28 10:30:26;;;;;;;2.07;1.40;;;24.90;59.10;;;;;;6276237;22;20382;-75
2023/09/28 10:32:55;;;;;;;4.90;1.93;;;24.90;56.00;;;;;;6276558;22;20401;-74
2023/09/28 10:35:28;;;;;;;2.57;1.80;;;25.00;56.40;;;;;;6276618;22;20398;-75
2023/09/28 10:38:20;;;;;;;3.30;1.20;;;25.10;53.40;;;;;;6276573;22;20402;-75
2023/09/28 10:41:03;;;;;;;1.83;1.17;;;25.30;54.40;;;;;;6276403;22;20470;-75
2023/09/28 10:43:31;;;;;;;2.07;1.37;;;25.30;54.20;;;;;;6276983;22;20381;-75
2023/09/28 10:45:58;;;;;;;2.20;1.50;;;25.10;56.40;;;;;;6276554;22;20408;-75
2023/09/28 10:48:25;;;;;;;2.07;1.40;;;25.10;54.20;;;;;;6276599;22;20393;-75
2023/09/28 10:50:54;;;;;;;1.93;1.30;;;25.30;55.70;;;;;;6276154;22;20432;-75
2023/09/28 10:53:21;;;;;;;2.20;1.33;;;25.30;52.70;;;;;;6276539;22;20463;-74
2023/09/28 10:55:48;;;;;;;2.30;1.27;;;25.40;52.40;;;;;;6276178;22;20492;-74
2023/09/28 10:58:14;;;;;;;2.40;1.40;;;25.60;50.70;;;;;;6276083;22;20764;-75
2023/09/28 11:00:42;;;;;;;2.30;1.50;;;25.70;52.50;;;;;;6276108;22;20779;-78
2023/09/28 11:03:08;;;;;;;2.23;1.40;;;25.80;51.80;;;;;;6276325;22;20421;-76
2023/09/28 11:05:36;;;;;;;2.00;1.30;;;26.10;52.10;;;;;;6276553;22;20397;-77
2023/09/28 11:08:04;;;;;;;2.87;1.77;;;26.40;51.40;;;;;;6276673;22;20455;-79
2023/09/28 11:10:31;;;;;;;2.10;1.57;;;26.60;51.60;;;;;;6276797;22;20447;-76
2023/09/28 11:12:58;;;;;;;2.13;1.50;;;26.70;52.90;;;;;;6276439;22;20401;-74
2023/09/28 11:15:29;;;;;;;1.80;1.10;;;26.60;51.70;;;;;;6276387;22;20397;-75
2023/09/28 11:17:56;;;;;;;2.00;1.50;;;26.70;51.50;;;;;;6276524;22;20424;-73
2023/09/28 11:20:23;;;;;;;2.53;1.57;;;26.80;52.40;;;;;;6276176;22;20459;-75
2023/09/28 11:22:55;;;;;;;2.00;1.20;;;26.90;48.80;;;;;;6276419;22;20403;-76
2023/09/28 11:25:23;;;;;;;2.37;1.33;;;27.00;49.00;;;;;;6276055;22;20800;-76
2023/09/28 11:27:51;;;;;;;3.30;1.47;;;27.20;48.10;;;;;;6276363;22;20412;-75
2023/09/28 11:30:19;;;;;;;1.80;1.13;;;27.30;48.90;;;;;;6276396;22;20397;-74
2023/09/28 11:32:50;;;;;;;1.80;1.20;;;27.40;50.00;;;;;;6276206;22;20426;-75
2023/09/28 11:35:18;;;;;;;1.90;1.50;;;27.20;48.30;;;;;;6277909;22;20439;-74
2023/09/28 11:37:45;;;;;;;2.00;1.53;;;27.40;49.90;;;;;;6278302;22;20454;-74
2023/09/28 11:40:12;;;;;;;1.97;0.90;;;27.50;50.60;;;;;;6278168;22;20437;-73
2023/09/28 11:42:42;;;;;;;1.70;1.10;;;27.60;41.60;;;;;;6278163;22;20428;-75
2023/09/28 11:45:12;;;;;;;1.70;0.80;;;27.60;39.40;;;;;;6278232;22;20390;-75
2023/09/28 11:47:39;;;;;;;1.80;1.00;;;27.70;42.40;;;;;;6278197;22;20688;-75
2023/09/28 11:50:07;;;;;;;2.07;1.23;;;28.10;42.60;;;;;;6278132;22;20783;-76
2023/09/28 11:52:35;;;;;;;2.13;1.20;;;28.40;43.70;;;;;;6278012;22;20420;-76
2023/09/28 11:55:02;;;;;;;2.00;1.00;;;28.60;42.80;;;;;;6278148;22;20401;-76
2023/09/28 11:57:29;;;;;;;1.87;1.00;;;28.60;41.10;;;;;;6278101;22;20401;-76
2023/09/28 11:59:57;;;;;;;2.30;1.43;;;28.50;42.90;;;;;;6277607;22;20964;-76
2023/09/28 12:02:23;;;;;;;1.70;1.00;;;28.30;43.00;;;;;;6277397;22;20947;-76
2023/09/28 12:04:51;;;;;;;1.80;1.07;;;28.60;45.70;;;;;;6278004;22;20397;-75
2023/09/28 12:07:19;;;;;;;1.90;1.23;;;28.80;44.20;;;;;;6277997;22;20401;-76
2023/09/28 12:09:45;;;;;;;1.70;1.20;;;28.80;42.40;;;;;;6278247;22;20444;-75
2023/09/28 12:12:12;;;;;;;1.50;0.90;;;28.80;42.10;;;;;;6277895;22;20421;-75
2023/09/28 12:14:39;;;;;;;2.10;1.20;;;28.80;41.60;;;;;;6277833;22;20401;-75
2023/09/28 12:17:09;;;;;;;1.80;1.20;;;28.80;42.60;;;;;;6277910;22;20401;-74
2023/09/28 12:19:35;;;;;;;2.27;1.30;;;28.80;42.70;;;;;;6277791;22;20813;-73
2023/09/28 12:22:03;;;;;;;1.60;1.10;;;28.60;42.50;;;;;;6277381;22;20425;-72
2023/09/28 12:24:30;;;;;;;1.70;1.00;;;28.60;42.50;;;;;;6277842;22;20416;-72
2023/09/28 12:26:59;;;;;;;1.70;1.13;;;28.80;42.70;;;;;;6277822;22;20401;-71
2023/09/28 12:29:26;;;;;;;1.80;0.90;;;29.20;41.70;;;;;;6277409;22;20885;-72
2023/09/28 12:31:53;;;;;;;2.47;1.10;;;29.60;44.60;;;;;;6277729;22;20425;-72
2023/09/28 12:34:25;;;;;;;2.00;1.30;;;30.10;44.40;;;;;;6277787;22;20405;-73
2023/09/28 12:36:51;;;;;;;1.70;1.07;;;30.40;41.90;;;;;;6277402;22;20939;-72
2023/09/28 12:39:21;;;;;;;1.60;0.90;;;30.30;40.30;;;;;;6277613;22;20468;-73
2023/09/28 12:41:49;;;;;;;1.70;0.97;;;30.10;42.00;;;;;;6277579;22;20421;-72
2023/09/28 12:44:17;;;;;;;2.10;1.10;;;30.10;41.80;;;;;;6277116;22;20892;-73
2023/09/28 12:46:44;;;;;;;1.80;0.90;;;30.50;40.90;;;;;;6277533;22;20413;-73
2023/09/28 12:49:10;;;;;;;1.60;0.80;;;30.70;39.70;;;;;;6277994;22;20393;-74
2023/09/28 12:51:41;;;;;;;1.70;1.00;;;30.70;38.30;;;;;;6277989;22;20422;-73
2023/09/28 12:54:08;;;;;;;1.70;1.00;;;30.90;38.40;;;;;;6277677;22;20385;-73
2023/09/28 12:56:35;;;;;;;1.70;0.90;;;31.10;38.90;;;;;;6277226;22;20907;-73
2023/09/28 12:59:01;;;;;;;1.50;0.87;;;31.20;38.10;;;;;;6277446;22;20771;-73
2023/09/28 13:01:28;;;;;;;2.10;0.90;;;30.90;38.80;;;;;;6277145;22;20444;-73
2023/09/28 13:03:55;;;;;;;2.47;1.10;;;31.00;38.80;;;;;;6277456;22;20402;-73
2023/09/28 13:06:21;;;;;;;1.47;0.90;;;30.50;38.10;;;;;;6277414;22;20401;-73
2023/09/28 13:08:50;;;;;;;1.60;1.00;;;30.40;38.60;;;;;;6277385;22;20401;-73
2023/09/28 13:11:18;;;;;;;1.57;0.83;;;30.00;38.90;;;;;;6277259;22;20463;-73
2023/09/28 13:13:44;;;;;;;1.67;0.97;;;29.90;39.10;;;;;;6277283;22;20412;-73
2023/09/28 13:16:13;;;;;;;1.50;0.90;;;29.80;39.80;;;;;;6277341;22;20397;-73
2023/09/28 13:18:40;;;;;;;1.60;0.90;;;30.10;40.50;;;;;;6277276;22;20489;-72
2023/09/28 13:21:08;;;;;;;1.50;0.90;;;30.20;39.90;;;;;;6276755;22;20448;-73
2023/09/28 13:23:35;;;;;;;1.70;1.10;;;30.70;40.80;;;;;;6277247;22;20408;-73
2023/09/28 13:26:04;;;;;;;2.40;1.03;;;31.00;38.30;;;;;;6277205;22;20410;-73
2023/09/28 13:28:31;;;;;;;1.50;0.83;;;31.30;38.40;;;;;;6277150;22;20456;-73
2023/09/28 13:30:58;;;;;;;3.30;0.90;;;31.70;39.10;;;;;;6277082;22;20421;-74
2023/09/28 13:33:25;;;;;;;1.70;0.80;;;31.60;36.70;;;;;;6277405;22;20397;-73
2023/09/28 13:35:52;;;;;;;1.63;0.87;;;31.60;37.90;;;;;;6276689;22;20748;-73
2023/09/28 13:38:18;;;;;;;1.50;0.90;;;31.70;36.30;;;;;;6277148;22;20397;-72
2023/09/28 13:40:45;;;;;;;1.63;0.87;;;31.90;37.80;;;;;;6276926;22;20467;-74
2023/09/28 13:43:13;;;;;;;2.13;0.80;;;32.20;37.30;;;;;;6276664;22;20892;-73
2023/09/28 13:45:42;;;;;;;2.23;0.80;;;32.50;36.90;;;;;;6277096;22;20420;-73
2023/09/28 13:48:09;;;;;;;1.93;0.87;;;32.80;36.70;;;;;;6277015;22;20467;-73
2023/09/28 13:50:36;;;;;;;1.70;0.80;;;33.00;35.00;;;;;;6276968;22;20424;-73
2023/09/28 13:53:03;;;;;;;1.80;1.20;;;33.50;35.60;;;;;;6276992;22;20523;-73
2023/09/28 13:55:30;;;;;;;2.03;0.90;;;34.10;34.20;;;;;;6276946;22;20856;-73
2023/09/28 13:57:56;;;;;;;1.40;0.80;;;34.90;34.30;;;;;;6276457;22;20407;-73
2023/09/28 14:00:33;;;;;;;2.10;1.20;;;35.50;33.30;;;;;;6276609;22;20437;-74
2023/09/28 14:03:00;;;;;;;1.70;0.90;;;36.10;32.60;;;;;;6276929;22;20385;-73
2023/09/28 14:05:27;;;;;;;2.10;1.10;;;36.80;31.00;;;;;;6276921;22;20404;-73
2023/09/28 14:07:55;;;;;;;1.50;0.90;;;37.50;29.80;;;;;;6276867;22;20454;-73
2023/09/28 14:10:22;;;;;;;1.87;0.93;;;38.60;29.40;;;;;;6276338;22;20492;-75
2023/09/28 14:12:49;;;;;;;1.30;0.70;;;38.00;30.10;;;;;;6276829;22;20543;-73
2023/09/28 14:15:16;;;;;;;1.43;0.83;;;38.30;29.10;;;;;;6276784;22;20432;-73
2023/09/28 14:17:45;;;;;;;1.40;0.80;;;39.50;29.10;;;;;;6276786;22;20446;-73
2023/09/28 14:20:12;;;;;;;1.80;0.87;;;40.80;27.10;;;;;;6276664;22;20502;-73
2023/09/28 14:22:39;;;;;;;1.60;0.90;;;40.20;27.20;;;;;;6276634;22;20421;-74
2023/09/28 14:25:08;;;;;;;1.30;0.70;;;40.60;27.50;;;;;;6276349;22;20695;-74
2023/09/28 14:27:35;;;;;;;2.72;0.98;;;40.80;27.40;;;;;;6276676;22;20715;-73
2023/09/28 14:30:02;;;;;;;2.33;0.90;;;41.00;27.30;;;;;;6276244;22;20170;-73
2023/09/28 14:32:29;;;;;;;1.20;0.70;;;40.80;27.30;;;;;;6276197;22;20537;-73
2023/09/28 14:34:57;;;;;;;1.63;1.00;;;40.60;26.90;;;;;;6276651;22;20507;-74
2023/09/28 14:37:25;;;;;;;2.27;1.00;;;39.40;28.00;;;;;;6276210;22;20892;-74
2023/09/28 14:39:52;;;;;;;1.30;0.70;;;38.40;28.90;;;;;;6276505;22;20767;-74
2023/09/28 14:42:19;;;;;;;1.30;0.80;;;38.40;29.20;;;;;;6276180;22;20923;-73
2023/09/28 14:44:45;;;;;;;1.63;0.90;;;38.00;29.90;;;;;;6276561;22;20407;-73
2023/09/28 14:47:12;;;;;;;1.40;0.80;;;37.90;28.80;;;;;;6276587;22;20432;-74
2023/09/28 14:49:39;;;;;;;1.77;0.80;;;37.80;29.20;;;;;;6276229;22;20451;-73
2023/09/28 14:52:07;;;;;;;1.40;0.70;;;37.30;29.30;;;;;;6276468;22;20421;-74
2023/09/28 14:54:34;;;;;;;1.30;0.80;;;37.30;29.20;;;;;;6276591;22;20396;-74
2023/09/28 14:57:01;;;;;;;1.60;0.90;;;36.70;29.40;;;;;;6276506;22;20837;-74
2023/09/28 14:59:28;;;;;;;1.50;0.80;;;37.20;29.90;;;;;;6276016;22;20774;-74
2023/09/28 15:01:55;;;;;;;1.40;0.90;;;38.70;30.00;;;;;;6275844;22;20951;-74
2023/09/28 15:04:22;;;;;;;1.40;0.80;;;39.90;28.60;;;;;;6276351;22;20797;-74
2023/09/28 15:06:49;;;;;;;1.40;0.83;;;40.70;27.40;;;;;;6277155;22;20687;-75
2023/09/28 15:09:17;;;;;;;1.50;1.05;;;40.90;27.00;;;;;;6278082;22;20260;-75
2023/09/28 15:11:43;;;;;;;1.40;0.85;;;41.60;27.10;;;;;;6278444;22;20193;-74
2023/09/28 15:14:10;;;;;;;1.50;0.97;;;41.60;26.90;;;;;;6278569;22;20177;-75
2023/09/28 15:16:36;;;;;;;1.30;0.70;;;40.50;28.00;;;;;;6278110;22;20197;-76
2023/09/28 15:19:03;;;;;;;1.50;0.80;;;38.10;28.10;;;;;;6278737;22;20396;-74
2023/09/28 15:21:30;;;;;;;2.13;0.80;;;36.60;30.40;;;;;;6277875;22;20950;-76
2023/09/28 15:23:58;;;;;;;1.40;0.70;;;35.20;31.40;;;;;;6278395;22;20794;-73
2023/09/28 15:26:26;;;;;;;1.70;1.10;;;34.10;31.80;;;;;;6277998;22;20720;-75
2023/09/28 15:28:53;;;;;;;1.47;0.70;;;33.30;33.30;;;;;;6278442;22;20405;-74
2023/09/28 15:31:20;;;;;;;1.70;0.87;;;32.60;32.80;;;;;;6278332;22;20416;-73
2023/09/28 15:33:46;;;;;;;1.50;0.90;;;32.30;33.40;;;;;;6277865;22;20999;-75
2023/09/28 15:36:16;;;;;;;1.57;0.80;;;31.90;36.60;;;;;;6278322;22;20771;-74
2023/09/28 15:38:42;;;;;;;1.63;0.90;;;31.50;36.70;;;;;;6278235;22;20412;-73
2023/09/28 15:41:35;;;;;;;2.30;0.90;;;31.20;39.40;;;;;;6277610;22;20451;-74
2023/09/28 15:44:03;;;;;;;1.60;0.80;;;31.00;38.60;;;;;;6278233;22;20723;-74
2023/09/28 15:46:30;;;;;;;1.70;0.80;;;30.60;39.30;;;;;;6277975;22;20398;-76
2023/09/28 15:48:59;;;;;;;1.87;0.90;;;30.40;40.60;;;;;;6278257;22;20731;-76
2023/09/28 15:51:26;;;;;;;1.50;0.80;;;30.20;39.20;;;;;;6278083;22;20413;-75
2023/09/28 15:53:52;;;;;;;1.77;0.90;;;30.00;40.00;;;;;;6278121;22;20455;-75
2023/09/28 15:56:19;;;;;;;1.70;0.90;;;29.80;39.60;;;;;;6278124;22;20404;-74
2023/09/28 15:58:47;;;;;;;1.77;0.83;;;29.70;43.80;;;;;;6278041;22;20468;-75
2023/09/28 16:01:15;;;;;;;1.70;1.00;;;29.50;45.20;;;;;;6277656;22;20453;-75
2023/09/28 16:03:42;;;;;;;1.60;0.90;;;29.30;44.80;;;;;;6278056;22;20401;-75
2023/09/28 16:06:09;;;;;;;1.57;0.80;;;29.20;47.10;;;;;;6278025;22;20786;-75
2023/09/28 16:08:37;;;;;;;1.50;0.80;;;29.00;47.60;;;;;;6277978;22;20401;-75
2023/09/28 16:11:04;;;;;;;1.60;0.90;;;28.80;48.00;;;;;;6277906;22;20471;-74
2023/09/28 16:13:32;;;;;;;3.53;1.10;;;28.60;48.60;;;;;;6277965;22;20407;-75
2023/09/28 16:16:00;;;;;;;3.33;1.33;;;28.50;49.10;;;;;;6281220;22;20460;-75
2023/09/28 16:18:26;;;;;;;1.90;0.90;;;28.20;49.40;;;;;;6308809;22;20404;-75
2023/09/28 16:20:53;;;;;;;1.80;0.87;;;28.00;49.80;;;;;;6308251;22;20465;-74
2023/09/28 16:23:19;;;;;;;1.90;0.90;;;27.90;50.40;;;;;;6308845;22;20400;-75
2023/09/28 16:25:46;;;;;;;1.57;0.80;;;27.70;50.90;;;;;;6299384;22;20963;-75
2023/09/28 16:28:13;;;;;;;1.70;0.80;;;27.60;51.20;;;;;;6277879;22;20463;-75
2023/09/28 16:30:39;;;;;;;1.50;0.80;;;27.40;51.60;;;;;;6277777;22;20398;-75
2023/09/28 16:33:08;;;;;;;3.60;0.90;;;27.20;51.50;;;;;;6277411;22;20395;-74
2023/09/28 16:35:34;;;;;;;2.10;1.10;;;27.00;51.30;;;;;;6277227;22;20772;-75
2023/09/28 16:38:01;;;;;;;1.70;0.90;;;26.80;52.00;;;;;;6277663;22;20412;-74
2023/09/28 16:40:28;;;;;;;1.70;1.00;;;26.60;51.60;;;;;;6277592;22;20432;-75
2023/09/28 16:42:54;;;;;;;2.20;1.00;;;26.40;52.30;;;;;;6277642;22;20735;-75
2023/09/28 16:45:22;;;;;;;2.00;1.10;;;26.30;52.90;;;;;;6277521;22;20408;-75
2023/09/28 16:47:49;;;;;;;2.40;0.97;;;26.20;53.00;;;;;;6277252;22;20920;-75
2023/09/28 16:50:17;;;;;;;1.60;1.00;;;26.10;53.60;;;;;;6277597;22;20394;-75